Time;durP1;ratioP1;P1;durP2;ratioP2;P2;SDS_P1;SDS_P2;PMS_P1;PMS_P2;Temp;Humidity;BMP_temperature;BMP_pressure;BME280_temperature;BME280_humidity;BME280_pressure;Samples;Min_cycle;Max_cycle;Signal;HPM_P1;HPM_P2
2020/12/12 00:00:27;;;;;;;7.20;3.90;;;;;;;6.44;100.00;95968.31;5044694;28;20708;-77
2020/12/12 00:02:55;;;;;;;7.33;4.10;;;;;;;6.64;100.00;95966.16;5042437;28;20205;-78
2020/12/12 00:05:22;;;;;;;9.40;4.00;;;;;;;6.60;100.00;95967.66;5042279;28;20206;-77
2020/12/12 00:07:49;;;;;;;7.03;4.37;;;;;;;6.43;100.00;95961.38;5045425;28;20211;-77
2020/12/12 00:10:15;;;;;;;5.70;3.03;;;;;;;6.41;100.00;95955.50;5047947;28;20235;-77
2020/12/12 00:12:42;;;;;;;5.97;4.00;;;;;;;6.60;100.00;95957.06;5050022;28;20202;-77
2020/12/12 00:15:09;;;;;;;6.70;3.97;;;;;;;6.56;100.00;95959.38;5049599;28;20294;-77
2020/12/12 00:17:36;;;;;;;7.07;3.90;;;;;;;6.76;100.00;95954.56;5048365;28;20206;-77
2020/12/12 00:20:04;;;;;;;6.90;3.83;;;;;;;6.80;100.00;95957.59;5049414;28;20224;-77
2020/12/12 00:22:30;;;;;;;5.47;3.27;;;;;;;6.82;100.00;95958.16;5043384;28;20195;-77
2020/12/12 00:24:57;;;;;;;6.93;3.90;;;;;;;6.84;100.00;95956.88;5052730;28;20202;-77
2020/12/12 00:27:24;;;;;;;6.23;3.63;;;;;;;7.00;100.00;95960.75;5047950;28;20220;-77
2020/12/12 00:29:51;;;;;;;6.00;3.67;;;;;;;6.88;100.00;95960.72;5044243;28;20209;-77
2020/12/12 00:32:18;;;;;;;5.80;3.87;;;;;;;6.90;100.00;95963.13;5061598;28;20204;-77
2020/12/12 00:34:44;;;;;;;7.80;3.67;;;;;;;6.99;100.00;95957.25;5054423;28;20201;-78
2020/12/12 00:37:12;;;;;;;5.63;3.60;;;;;;;7.05;100.00;95945.75;5049958;28;20208;-78
2020/12/12 00:39:39;;;;;;;7.73;4.00;;;;;;;6.90;100.00;95961.28;5058881;28;20670;-78
2020/12/12 00:42:06;;;;;;;9.07;3.70;;;;;;;6.82;100.00;95945.72;5045938;28;20201;-78
2020/12/12 00:44:33;;;;;;;6.03;3.90;;;;;;;6.72;100.00;95944.66;5050870;28;20204;-78
2020/12/12 00:47:03;;;;;;;8.60;4.30;;;;;;;6.55;100.00;95941.03;5033133;28;20217;-76
2020/12/12 00:49:29;;;;;;;7.27;4.03;;;;;;;6.78;100.00;95941.91;5046902;28;20207;-75
2020/12/12 00:51:56;;;;;;;6.73;3.83;;;;;;;6.83;100.00;95949.16;5045216;28;20297;-79
2020/12/12 00:54:24;;;;;;;7.43;4.40;;;;;;;6.82;100.00;95943.06;5057526;28;20203;-76
2020/12/12 00:56:51;;;;;;;5.70;3.47;;;;;;;6.96;100.00;95951.63;5051184;28;20237;-76
2020/12/12 00:59:18;;;;;;;5.70;3.83;;;;;;;6.85;100.00;95939.94;5040308;28;20573;-75
2020/12/12 01:01:46;;;;;;;6.27;3.67;;;;;;;6.61;100.00;95946.22;5043933;28;20238;-76
2020/12/12 01:04:12;;;;;;;6.07;3.63;;;;;;;6.62;100.00;95949.69;5045240;28;20204;-76
2020/12/12 01:06:40;;;;;;;6.40;4.07;;;;;;;6.85;100.00;95949.75;5042671;28;20221;-76
2020/12/12 01:09:07;;;;;;;7.33;4.20;;;;;;;6.60;100.00;95952.56;5042165;28;20232;-76
2020/12/12 01:11:34;;;;;;;6.97;3.73;;;;;;;6.51;100.00;95953.94;5050637;28;20227;-76
2020/12/12 01:14:01;;;;;;;6.33;4.00;;;;;;;6.47;100.00;95959.88;5046302;28;20201;-76
2020/12/12 01:16:28;;;;;;;5.97;3.47;;;;;;;6.48;100.00;95967.63;5034718;28;20198;-75
2020/12/12 01:18:55;;;;;;;6.60;4.00;;;;;;;6.50;100.00;95970.84;5044391;28;20643;-75
2020/12/12 01:21:21;;;;;;;5.90;3.50;;;;;;;6.73;100.00;95970.94;5043875;28;20569;-75
2020/12/12 01:23:49;;;;;;;7.83;3.77;;;;;;;6.71;100.00;95972.19;5049172;28;20205;-76
2020/12/12 01:26:16;;;;;;;5.73;3.10;;;;;;;6.91;100.00;95978.78;5049304;28;20236;-75
2020/12/12 01:28:44;;;;;;;5.93;3.40;;;;;;;6.62;100.00;95974.34;5045146;28;20536;-76
2020/12/12 01:31:12;;;;;;;6.13;3.43;;;;;;;6.32;100.00;95978.84;5042627;28;20306;-75
2020/12/12 01:33:39;;;;;;;4.97;3.03;;;;;;;6.34;100.00;95973.34;5048134;28;20257;-78
2020/12/12 01:36:06;;;;;;;6.17;3.27;;;;;;;6.61;100.00;95972.72;5036334;28;20285;-75
2020/12/12 01:38:33;;;;;;;7.77;3.50;;;;;;;6.91;100.00;95973.50;5050799;28;20196;-76
2020/12/12 01:41:00;;;;;;;4.97;3.23;;;;;;;6.60;100.00;95965.81;5043817;28;20219;-76
2020/12/12 01:43:27;;;;;;;6.83;3.53;;;;;;;6.96;100.00;95964.88;5043593;28;20673;-76
2020/12/12 01:45:54;;;;;;;5.47;3.27;;;;;;;7.10;100.00;95968.94;5049397;28;20587;-76
2020/12/12 01:48:21;;;;;;;5.10;2.73;;;;;;;7.20;100.00;95975.28;5044938;28;20668;-76
2020/12/12 01:50:48;;;;;;;5.47;2.90;;;;;;;7.24;100.00;95965.84;5043802;28;20227;-76
2020/12/12 01:53:16;;;;;;;4.50;3.00;;;;;;;7.06;100.00;95970.44;5046407;28;20206;-76
2020/12/12 01:55:47;;;;;;;5.23;3.00;;;;;;;7.07;100.00;95974.69;5050152;28;20207;-76
2020/12/12 01:58:14;;;;;;;5.40;3.00;;;;;;;7.08;100.00;95974.47;5043482;28;20655;-76
2020/12/12 02:00:41;;;;;;;5.23;3.40;;;;;;;6.80;100.00;95973.50;5042800;28;20616;-76
2020/12/12 02:03:10;;;;;;;7.90;4.00;;;;;;;6.44;100.00;95968.31;5049616;28;20188;-76
2020/12/12 02:05:41;;;;;;;5.37;3.00;;;;;;;6.68;100.00;95972.63;5049319;28;20208;-76
2020/12/12 02:08:10;;;;;;;5.23;2.83;;;;;;;6.65;100.00;95975.75;5043611;28;20575;-76
2020/12/12 02:10:38;;;;;;;5.97;3.50;;;;;;;6.98;100.00;95971.56;5045450;28;20219;-77
2020/12/12 02:13:05;;;;;;;4.67;3.13;;;;;;;6.79;100.00;95974.50;5040279;28;20203;-76
2020/12/12 02:15:32;;;;;;;6.03;3.23;;;;;;;6.74;100.00;95971.72;5042120;28;20193;-76
2020/12/12 02:18:00;;;;;;;7.00;3.20;;;;;;;7.13;100.00;95966.63;5040463;28;20206;-77
2020/12/12 02:20:28;;;;;;;5.37;3.27;;;;;;;6.74;100.00;95977.84;5045542;28;20280;-77
2020/12/12 02:22:56;;;;;;;6.30;3.00;;;;;;;6.37;100.00;95967.56;5043111;28;20203;-77
2020/12/12 02:25:23;;;;;;;6.07;3.17;;;;;;;6.79;100.00;95966.53;5037248;28;20212;-77
2020/12/12 02:27:52;;;;;;;5.17;3.30;;;;;;;6.65;100.00;95965.94;5041943;28;20235;-76
2020/12/12 02:30:21;;;;;;;5.30;3.43;;;;;;;6.78;100.00;95973.72;5051618;28;20608;-77
2020/12/12 02:32:49;;;;;;;6.30;3.27;;;;;;;6.77;100.00;95969.44;5045499;28;20236;-77
2020/12/12 02:35:17;;;;;;;5.60;3.17;;;;;;;6.61;100.00;95959.47;5046766;28;20205;-77
2020/12/12 02:37:44;;;;;;;3.97;3.03;;;;;;;6.97;100.00;95961.19;5054092;28;20276;-77
2020/12/12 02:40:12;;;;;;;3.80;2.50;;;;;;;6.74;100.00;95963.78;5048778;28;20703;-77
2020/12/12 02:42:38;;;;;;;5.80;3.50;;;;;;;6.65;100.00;95970.44;5059585;28;20203;-77
2020/12/12 02:45:05;;;;;;;5.27;3.20;;;;;;;6.67;100.00;95963.06;5040536;28;20674;-77
2020/12/12 02:47:34;;;;;;;4.80;3.07;;;;;;;6.75;100.00;95958.25;5046410;28;20712;-77
2020/12/12 02:50:12;;;;;;;5.03;3.07;;;;;;;6.90;100.00;95955.19;5045742;28;20713;-77
2020/12/12 02:52:40;;;;;;;5.43;3.30;;;;;;;6.70;100.00;95959.97;5046823;28;20188;-76
2020/12/12 02:55:08;;;;;;;5.27;3.03;;;;;;;6.55;100.00;95949.00;5051291;28;20210;-76
2020/12/12 02:57:36;;;;;;;5.67;3.30;;;;;;;6.94;100.00;95954.50;5054568;28;20217;-77
2020/12/12 03:00:07;;;;;;;5.97;3.17;;;;;;;6.68;100.00;95954.06;5045797;28;20232;-75
2020/12/12 03:02:34;;;;;;;4.80;3.17;;;;;;;6.93;100.00;95952.88;5049623;28;20598;-76
2020/12/12 03:05:01;;;;;;;5.20;3.27;;;;;;;6.98;100.00;95962.78;5044132;28;20200;-78
2020/12/12 03:07:27;;;;;;;7.37;3.73;;;;;;;6.50;100.00;95959.47;5054740;28;20224;-75
2020/12/12 03:09:54;;;;;;;5.37;3.37;;;;;;;6.80;100.00;95955.72;5046903;28;20217;-75
2020/12/12 03:12:21;;;;;;;4.53;2.97;;;;;;;7.02;100.00;95948.88;5047593;28;20193;-75
2020/12/12 03:14:49;;;;;;;6.07;3.60;;;;;;;6.76;100.00;95949.25;5044879;28;20205;-75
2020/12/12 03:17:15;;;;;;;5.87;3.80;;;;;;;6.73;100.00;95957.69;5040741;28;20200;-76
2020/12/12 03:19:42;;;;;;;6.40;2.93;;;;;;;6.90;100.00;95960.50;5051205;28;20213;-75
2020/12/12 03:22:09;;;;;;;5.47;3.53;;;;;;;6.60;100.00;95954.41;5051579;28;20588;-75
2020/12/12 03:24:36;;;;;;;6.63;3.70;;;;;;;6.94;100.00;95959.78;5039249;28;20200;-76
2020/12/12 03:27:03;;;;;;;5.30;3.30;;;;;;;6.62;100.00;95960.28;5043917;28;20811;-76
2020/12/12 03:29:30;;;;;;;7.77;3.90;;;;;;;6.30;100.00;95970.28;5050547;28;20196;-76
2020/12/12 03:31:57;;;;;;;5.97;3.67;;;;;;;6.83;100.00;95976.50;5046273;28;20220;-76
2020/12/12 03:34:24;;;;;;;7.77;4.03;;;;;;;6.89;100.00;95974.75;5042290;28;20197;-77
2020/12/12 03:36:51;;;;;;;10.67;4.30;;;;;;;6.87;100.00;95975.00;5049423;28;20204;-77
2020/12/12 03:39:18;;;;;;;8.67;4.50;;;;;;;6.93;100.00;95968.78;5047754;28;20329;-77
2020/12/12 03:41:44;;;;;;;8.67;4.17;;;;;;;6.47;100.00;95971.31;5045490;28;20230;-77
2020/12/12 03:44:11;;;;;;;7.10;4.27;;;;;;;6.70;100.00;95971.38;5054766;28;20204;-76
2020/12/12 03:46:38;;;;;;;7.73;4.10;;;;;;;6.90;100.00;95982.50;5049522;28;20223;-77
2020/12/12 03:49:05;;;;;;;8.50;4.63;;;;;;;6.87;100.00;95975.00;5045459;28;20602;-77
2020/12/12 03:51:32;;;;;;;8.03;4.20;;;;;;;6.91;100.00;95972.69;5057694;28;20226;-76
2020/12/12 03:53:59;;;;;;;8.27;4.67;;;;;;;6.81;100.00;95972.44;5046015;28;20318;-76
2020/12/12 03:56:26;;;;;;;7.70;4.47;;;;;;;6.86;100.00;95973.38;5054455;28;20205;-75
2020/12/12 03:58:53;;;;;;;8.53;4.03;;;;;;;6.94;100.00;95970.41;5052063;28;20254;-76
2020/12/12 04:01:19;;;;;;;8.77;4.53;;;;;;;7.02;100.00;95980.69;5047783;28;20728;-75
2020/12/12 04:03:46;;;;;;;5.87;4.13;;;;;;;6.94;100.00;95985.50;5053370;28;20213;-76
2020/12/12 04:06:14;;;;;;;7.77;4.20;;;;;;;6.92;100.00;95982.25;5057610;28;20607;-75
2020/12/12 04:08:41;;;;;;;8.80;4.63;;;;;;;6.65;100.00;95989.00;5050358;28;20227;-76
2020/12/12 04:11:08;;;;;;;5.93;3.87;;;;;;;6.79;100.00;95985.91;5055593;28;20214;-75
2020/12/12 04:13:34;;;;;;;8.47;4.50;;;;;;;6.46;100.00;95988.25;5054372;28;20196;-76
2020/12/12 04:16:02;;;;;;;6.13;4.13;;;;;;;6.55;100.00;95989.53;5046881;28;20282;-76
2020/12/12 04:18:29;;;;;;;7.10;4.53;;;;;;;6.68;100.00;95992.00;5048477;28;20203;-75
2020/12/12 04:20:56;;;;;;;7.67;4.40;;;;;;;6.53;100.00;95983.66;5052925;28;20439;-76
2020/12/12 04:23:24;;;;;;;9.47;5.20;;;;;;;6.23;100.00;95988.13;5044627;28;20199;-76
2020/12/12 04:25:51;;;;;;;7.10;4.20;;;;;;;6.32;100.00;95993.91;5044743;28;20200;-76
2020/12/12 04:28:17;;;;;;;6.87;4.27;;;;;;;6.56;100.00;95985.03;5036430;28;20232;-76
2020/12/12 04:30:44;;;;;;;7.33;4.57;;;;;;;6.59;100.00;95988.03;5034686;28;20242;-76
2020/12/12 04:33:11;;;;;;;8.93;4.57;;;;;;;6.50;100.00;95981.44;5045083;28;20212;-77
2020/12/12 04:35:38;;;;;;;7.23;4.53;;;;;;;6.60;100.00;95976.41;5045673;28;20196;-77
2020/12/12 04:38:04;;;;;;;8.97;4.70;;;;;;;6.71;100.00;95980.94;5041624;28;20208;-77
2020/12/12 04:40:32;;;;;;;8.83;4.27;;;;;;;7.01;100.00;95984.34;5041235;28;20215;-77
2020/12/12 04:43:01;;;;;;;9.00;4.70;;;;;;;7.14;100.00;95984.16;5043404;28;20231;-77
2020/12/12 04:45:27;;;;;;;9.37;4.50;;;;;;;7.02;100.00;95982.53;5040895;28;20204;-77
2020/12/12 04:47:54;;;;;;;6.40;4.13;;;;;;;7.08;100.00;95987.72;5045356;28;20223;-77
2020/12/12 04:50:28;;;;;;;9.20;5.03;;;;;;;7.10;100.00;95993.59;5038363;28;20306;-77
2020/12/12 04:52:56;;;;;;;7.40;4.40;;;;;;;7.06;100.00;95986.34;5041327;28;20208;-77
2020/12/12 04:55:25;;;;;;;7.80;4.30;;;;;;;6.90;100.00;95987.00;5040860;28;20684;-77
2020/12/12 04:57:54;;;;;;;7.13;4.17;;;;;;;7.18;100.00;95987.16;5043536;28;20673;-77
2020/12/12 05:00:21;;;;;;;8.13;4.70;;;;;;;7.12;100.00;95988.91;5039343;28;20252;-77
2020/12/12 05:02:48;;;;;;;6.77;4.37;;;;;;;7.04;100.00;95983.09;5039481;28;20277;-77
2020/12/12 05:05:15;;;;;;;10.83;4.63;;;;;;;7.00;100.00;95988.03;5042800;28;20198;-77
2020/12/12 05:07:42;;;;;;;10.13;4.23;;;;;;;7.26;100.00;95984.19;5040949;28;20219;-76
2020/12/12 05:10:08;;;;;;;7.43;4.57;;;;;;;7.05;100.00;95982.88;5055354;28;20225;-76
2020/12/12 05:12:35;;;;;;;8.23;4.80;;;;;;;7.00;100.00;95987.25;5052778;28;20210;-76
2020/12/12 05:15:04;;;;;;;9.97;4.90;;;;;;;7.07;100.00;95990.59;5048572;28;20205;-75
2020/12/12 05:17:30;;;;;;;7.43;3.70;;;;;;;7.02;100.00;95979.88;5032566;28;20204;-77
2020/12/12 05:19:59;;;;;;;6.80;4.50;;;;;;;7.22;100.00;95988.31;5049857;28;20196;-76
2020/12/12 05:22:27;;;;;;;7.47;4.43;;;;;;;7.16;100.00;95986.59;5048484;28;20208;-76
2020/12/12 05:24:54;;;;;;;7.10;4.00;;;;;;;7.33;100.00;95988.34;5048300;28;20535;-76
2020/12/12 05:27:21;;;;;;;7.47;3.70;;;;;;;7.29;100.00;95987.16;5047009;28;20634;-76
2020/12/12 05:29:48;;;;;;;7.83;3.83;;;;;;;7.33;100.00;95990.16;5042118;28;20203;-76
2020/12/12 05:32:16;;;;;;;7.33;3.93;;;;;;;7.42;100.00;95992.25;5045531;28;20693;-75
2020/12/12 05:34:42;;;;;;;6.00;3.43;;;;;;;7.32;100.00;95989.34;5042951;28;20206;-75
2020/12/12 05:37:09;;;;;;;6.90;4.03;;;;;;;7.38;100.00;95991.09;5045705;28;20653;-76
2020/12/12 05:39:36;;;;;;;7.50;4.07;;;;;;;7.38;100.00;95995.59;5051830;28;20204;-75
2020/12/12 05:42:03;;;;;;;7.77;3.63;;;;;;;7.46;100.00;95993.41;5044166;28;20219;-75
2020/12/12 05:44:31;;;;;;;6.00;3.50;;;;;;;7.55;100.00;95992.03;5040090;28;20193;-75
2020/12/12 05:47:01;;;;;;;5.60;3.40;;;;;;;7.57;100.00;95994.47;5044782;28;20319;-76
2020/12/12 05:49:29;;;;;;;6.23;3.70;;;;;;;7.57;100.00;95995.25;5049309;28;20291;-75
2020/12/12 05:51:56;;;;;;;7.47;3.90;;;;;;;7.21;100.00;95998.09;5044427;28;20225;-75
2020/12/12 05:54:23;;;;;;;5.93;3.53;;;;;;;7.37;100.00;95996.63;5035455;28;20201;-76
2020/12/12 05:56:51;;;;;;;4.80;3.07;;;;;;;7.45;100.00;95997.09;5046094;28;20610;-73
2020/12/12 05:59:17;;;;;;;5.33;3.17;;;;;;;7.44;100.00;95995.50;5040224;28;20201;-74
2020/12/12 06:01:46;;;;;;;6.33;3.30;;;;;;;7.36;100.00;95995.81;5044707;28;20223;-75
2020/12/12 06:04:16;;;;;;;5.60;3.60;;;;;;;7.20;100.00;96003.66;5049284;28;20294;-75
2020/12/12 06:06:45;;;;;;;6.17;3.43;;;;;;;7.47;100.00;96000.31;5053666;28;20258;-75
2020/12/12 06:09:14;;;;;;;5.17;3.30;;;;;;;7.31;100.00;96010.81;5047178;28;20676;-75
2020/12/12 06:11:42;;;;;;;6.13;3.63;;;;;;;7.46;100.00;96001.38;5047754;28;20218;-75
2020/12/12 06:14:09;;;;;;;5.90;3.70;;;;;;;7.16;100.00;96005.16;5050625;28;20656;-74
2020/12/12 06:16:38;;;;;;;6.53;3.37;;;;;;;7.38;100.00;96006.22;5042124;28;20213;-75
2020/12/12 06:19:13;;;;;;;9.27;3.40;;;;;;;7.54;100.00;96010.81;5048537;28;20752;-75
2020/12/12 06:21:41;;;;;;;5.23;3.37;;;;;;;7.40;100.00;96007.59;5058546;28;20570;-74
2020/12/12 06:24:10;;;;;;;6.33;3.57;;;;;;;7.25;100.00;96011.75;5050722;28;20203;-77
2020/12/12 06:26:53;;;;;;;4.03;2.97;;;;;;;7.64;100.00;96011.06;5049015;28;20729;-76
2020/12/12 06:29:20;;;;;;;5.30;3.17;;;;;;;7.31;100.00;96014.28;5033714;28;20577;-73
2020/12/12 06:31:47;;;;;;;5.43;2.90;;;;;;;7.48;100.00;96017.06;5044308;28;20837;-74
2020/12/12 06:34:14;;;;;;;5.70;3.27;;;;;;;7.55;100.00;96025.72;5047002;28;20196;-76
2020/12/12 06:36:48;;;;;;;4.43;3.03;;;;;;;7.44;100.00;96021.19;5053766;28;20273;-77
2020/12/12 06:39:24;;;;;;;5.50;3.40;;;;;;;7.37;100.00;96028.47;5049332;28;20195;-76
2020/12/12 06:41:52;;;;;;;6.10;3.13;;;;;;;7.31;100.00;96024.88;5055682;28;20316;-76
2020/12/12 06:44:36;;;;;;;5.50;3.47;;;;;;;7.45;100.00;96028.13;5063114;28;20242;-75
2020/12/12 06:47:04;;;;;;;5.67;3.33;;;;;;;7.46;100.00;96032.41;5056016;28;20216;-75
2020/12/12 06:49:31;;;;;;;5.10;3.20;;;;;;;7.55;100.00;96031.00;5052676;28;20204;-77
2020/12/12 06:51:58;;;;;;;5.37;3.27;;;;;;;7.41;100.00;96038.38;5052280;28;20590;-75
2020/12/12 06:54:26;;;;;;;6.27;3.70;;;;;;;7.34;100.00;96039.53;5046555;28;20638;-72
2020/12/12 06:56:52;;;;;;;5.30;3.07;;;;;;;7.50;100.00;96047.63;5040441;28;20564;-74
2020/12/12 06:59:27;;;;;;;4.90;3.23;;;;;;;7.52;100.00;96042.91;5045481;28;20202;-77
2020/12/12 07:01:54;;;;;;;6.13;3.50;;;;;;;7.17;100.00;96052.66;5055676;28;20221;-76
2020/12/12 07:04:25;;;;;;;6.20;3.70;;;;;;;7.29;100.00;96048.19;5055807;28;20694;-73
2020/12/12 07:07:04;;;;;;;5.67;3.37;;;;;;;7.43;100.00;96052.25;5045724;28;20223;-75
2020/12/12 07:09:32;;;;;;;6.10;3.87;;;;;;;7.19;100.00;96061.19;5053901;28;20279;-74
2020/12/12 07:11:59;;;;;;;5.93;3.77;;;;;;;7.28;100.00;96067.78;5045219;28;20216;-74
2020/12/12 07:14:26;;;;;;;5.50;3.47;;;;;;;7.18;100.00;96064.88;5046273;28;20204;-74
2020/12/12 07:16:57;;;;;;;5.53;3.13;;;;;;;7.49;100.00;96074.41;5051131;28;20211;-76
2020/12/12 07:19:37;;;;;;;5.40;2.97;;;;;;;7.36;100.00;96083.38;5046696;28;20557;-76
2020/12/12 07:22:06;;;;;;;7.80;4.80;;;;;;;7.66;100.00;96076.16;5047352;28;20452;-78
2020/12/12 07:24:34;;;;;;;4.70;3.40;;;;;;;7.54;100.00;96085.13;5041405;28;20546;-75
2020/12/12 07:27:01;;;;;;;6.63;3.17;;;;;;;7.67;100.00;96082.28;5054518;28;20228;-76
2020/12/12 07:29:28;;;;;;;6.90;3.50;;;;;;;7.76;100.00;96086.22;5051254;28;20205;-74
2020/12/12 07:31:56;;;;;;;6.13;3.40;;;;;;;7.48;100.00;96091.38;5035697;28;20255;-76
2020/12/12 07:34:24;;;;;;;7.17;4.00;;;;;;;7.69;100.00;96085.50;5042463;28;20201;-76
2020/12/12 07:36:59;;;;;;;6.40;3.50;;;;;;;7.66;100.00;96092.06;5051636;28;20567;-77
2020/12/12 07:39:34;;;;;;;5.17;3.27;;;;;;;7.69;100.00;96088.97;5035378;28;20718;-75
2020/12/12 07:42:03;;;;;;;7.77;3.07;;;;;;;7.82;100.00;96096.69;5043749;28;20220;-78
2020/12/12 07:44:31;;;;;;;4.80;3.00;;;;;;;7.76;100.00;96096.84;5047401;28;20212;-78
2020/12/12 07:46:59;;;;;;;5.63;3.73;;;;;;;7.66;100.00;96101.91;5046521;28;20745;-77
2020/12/12 07:49:26;;;;;;;5.53;3.37;;;;;;;7.84;100.00;96104.44;5047427;28;20263;-78
2020/12/12 07:52:05;;;;;;;6.00;3.67;;;;;;;7.83;100.00;96102.84;5037192;28;20376;-75
2020/12/12 07:54:39;;;;;;;6.10;3.77;;;;;;;8.03;100.00;96112.09;5038680;28;20192;-75
2020/12/12 07:57:07;;;;;;;5.10;3.33;;;;;;;7.97;100.00;96117.50;5055251;28;20657;-85
2020/12/12 07:59:34;;;;;;;5.53;3.27;;;;;;;7.97;100.00;96112.19;5051332;28;20243;-78
2020/12/12 08:02:05;;;;;;;4.73;3.20;;;;;;;7.80;100.00;96112.06;5053666;28;20707;-76
2020/12/12 08:04:32;;;;;;;4.30;3.20;;;;;;;7.95;100.00;96119.56;5045234;28;20209;-79
2020/12/12 08:07:09;;;;;;;4.17;2.80;;;;;;;7.98;100.00;96130.56;5050950;28;20239;-77
2020/12/12 08:09:37;;;;;;;5.07;2.87;;;;;;;7.51;100.00;96130.72;5049496;28;20652;-77
2020/12/12 08:12:04;;;;;;;4.97;3.53;;;;;;;7.65;100.00;96129.47;5049514;28;20704;-77
2020/12/12 08:14:42;;;;;;;6.43;3.50;;;;;;;7.95;100.00;96128.34;5051388;28;20276;-78
2020/12/12 08:17:11;;;;;;;6.33;3.80;;;;;;;7.89;100.00;96139.09;5053231;28;20228;-79
2020/12/12 08:19:46;;;;;;;5.93;3.23;;;;;;;7.67;100.00;96138.03;5049073;28;20238;-79
2020/12/12 08:22:19;;;;;;;7.20;3.33;;;;;;;8.05;100.00;96141.88;5049684;28;20307;-73
2020/12/12 08:24:48;;;;;;;8.37;3.10;;;;;;;7.69;100.00;96146.56;5050814;28;20254;-74
2020/12/12 08:27:17;;;;;;;5.23;3.50;;;;;;;7.74;100.00;96144.84;5052698;28;20282;-75
2020/12/12 08:29:45;;;;;;;5.53;3.17;;;;;;;7.82;100.00;96147.16;5059368;28;20215;-75
2020/12/12 08:32:33;;;;;;;5.43;3.03;;;;;;;8.09;100.00;96148.34;5053742;28;20572;-77
2020/12/12 08:35:11;;;;;;;4.97;2.60;;;;;;;7.99;100.00;96157.91;5046131;28;20228;-78
2020/12/12 08:37:38;;;;;;;5.37;3.00;;;;;;;7.98;100.00;96154.47;5047075;28;20602;-75
2020/12/12 08:40:07;;;;;;;5.47;2.70;;;;;;;7.74;100.00;96162.63;5053417;28;20227;-74
2020/12/12 08:42:34;;;;;;;4.03;2.73;;;;;;;8.05;100.00;96165.78;5050794;28;20297;-70
2020/12/12 08:45:14;;;;;;;8.37;3.63;;;;;;;8.18;100.00;96167.41;5042508;28;20209;-73
2020/12/12 08:47:42;;;;;;;7.97;3.00;;;;;;;7.89;100.00;96173.59;5054827;28;20306;-73
2020/12/12 08:50:09;;;;;;;6.27;3.43;;;;;;;8.24;100.00;96169.16;5035882;28;20243;-76
2020/12/12 08:52:39;;;;;;;5.27;3.13;;;;;;;7.97;100.00;96174.06;5038404;28;20205;-78
2020/12/12 08:55:06;;;;;;;6.93;3.20;;;;;;;8.11;100.00;96179.97;5042836;28;20198;-74
2020/12/12 08:57:33;;;;;;;5.87;2.73;;;;;;;8.35;100.00;96179.81;5032500;28;20205;-74
2020/12/12 09:00:00;;;;;;;6.57;3.43;;;;;;;8.45;100.00;96181.88;5041337;28;20772;-74
2020/12/12 09:02:27;;;;;;;5.63;3.27;;;;;;;8.07;100.00;96192.91;5042002;28;20196;-75
2020/12/12 09:05:08;;;;;;;4.13;2.60;;;;;;;7.84;100.00;96182.28;5052705;28;20204;-74
2020/12/12 09:07:34;;;;;;;6.40;3.00;;;;;;;8.18;100.00;96186.78;5052160;28;20563;-74
2020/12/12 09:10:13;;;;;;;5.40;3.00;;;;;;;8.37;100.00;96193.66;5040926;28;20233;-75
2020/12/12 09:12:46;;;;;;;6.07;3.13;;;;;;;8.29;100.00;96201.19;5035674;28;20198;-75
2020/12/12 09:15:13;;;;;;;5.47;3.00;;;;;;;8.40;100.00;96209.16;5053429;28;20204;-74
2020/12/12 09:17:40;;;;;;;6.87;3.30;;;;;;;8.45;100.00;96209.28;5048038;28;20211;-75
2020/12/12 09:20:08;;;;;;;5.87;3.57;;;;;;;8.12;100.00;96208.97;5037427;28;20232;-73
2020/12/12 09:22:36;;;;;;;5.20;2.57;;;;;;;8.35;100.00;96217.00;5040330;28;20289;-77
2020/12/12 09:25:03;;;;;;;7.13;3.20;;;;;;;8.48;100.00;96219.44;5035882;28;20676;-79
2020/12/12 09:27:31;;;;;;;6.77;3.10;;;;;;;8.41;100.00;96218.75;5048311;28;20217;-75
2020/12/12 09:29:57;;;;;;;6.67;3.50;;;;;;;8.74;100.00;96213.66;5047639;28;20288;-74
2020/12/12 09:32:24;;;;;;;6.47;2.77;;;;;;;8.54;100.00;96213.22;5037822;28;20198;-76
2020/12/12 09:34:51;;;;;;;3.53;2.73;;;;;;;8.99;100.00;96221.38;5051753;28;20190;-76
2020/12/12 09:37:18;;;;;;;5.77;2.80;;;;;;;8.52;100.00;96219.81;5046653;28;20653;-77
2020/12/12 09:39:45;;;;;;;8.13;2.67;;;;;;;9.02;100.00;96226.19;5042162;28;20195;-77
2020/12/12 09:42:12;;;;;;;6.00;2.63;;;;;;;8.87;100.00;96229.34;5045526;28;20190;-80
2020/12/12 09:44:39;;;;;;;4.73;2.90;;;;;;;8.83;100.00;96236.19;5040436;28;20204;-78
2020/12/12 09:47:07;;;;;;;3.77;2.30;;;;;;;9.17;100.00;96243.31;5048606;28;20932;-77
2020/12/12 09:49:34;;;;;;;5.10;2.70;;;;;;;8.86;100.00;96246.38;5032669;28;20255;-78
2020/12/12 09:52:01;;;;;;;5.87;3.10;;;;;;;9.13;100.00;96241.34;5039538;28;20233;-78
2020/12/12 09:54:27;;;;;;;4.97;2.43;;;;;;;9.33;100.00;96249.75;5041853;28;20205;-77
2020/12/12 09:56:55;;;;;;;4.63;2.47;;;;;;;9.27;100.00;96251.50;5044840;28;20593;-77
2020/12/12 09:59:22;;;;;;;4.83;2.40;;;;;;;9.09;100.00;96251.63;5054216;28;20201;-77
2020/12/12 10:01:50;;;;;;;5.10;3.00;;;;;;;9.46;100.00;96250.28;5045455;28;20689;-75
2020/12/12 10:04:17;;;;;;;3.97;2.60;;;;;;;8.85;100.00;96257.22;5046727;28;20198;-77
2020/12/12 10:06:44;;;;;;;4.17;2.57;;;;;;;8.96;100.00;96253.75;5048774;28;20206;-77
2020/12/12 10:09:10;;;;;;;3.93;2.30;;;;;;;9.37;100.00;96254.38;5049973;28;20208;-76
2020/12/12 10:11:37;;;;;;;4.27;1.87;;;;;;;9.46;100.00;96263.59;5051464;28;20221;-78
2020/12/12 10:14:04;;;;;;;3.83;2.20;;;;;;;9.66;100.00;96257.84;5046283;28;20387;-78
2020/12/12 10:16:31;;;;;;;4.33;2.30;;;;;;;9.76;100.00;96260.72;5061101;28;20228;-78
2020/12/12 10:18:58;;;;;;;3.57;2.10;;;;;;;9.34;100.00;96264.69;5057393;28;20213;-78
2020/12/12 10:21:26;;;;;;;2.40;1.67;;;;;;;9.39;100.00;96270.91;5061391;28;20233;-77
2020/12/12 10:23:52;;;;;;;2.97;2.00;;;;;;;9.39;100.00;96270.09;5040598;28;20206;-77
2020/12/12 10:26:19;;;;;;;2.57;1.53;;;;;;;9.31;100.00;96265.97;5040033;28;20206;-78
2020/12/12 10:28:46;;;;;;;2.53;1.70;;;;;;;9.90;100.00;96259.38;5053840;28;20213;-79
2020/12/12 10:31:13;;;;;;;2.90;1.80;;;;;;;9.93;100.00;96258.88;5043030;28;20218;-79
2020/12/12 10:33:39;;;;;;;2.63;1.67;;;;;;;9.95;100.00;96264.81;5052104;28;20206;-79
2020/12/12 10:36:07;;;;;;;2.17;1.63;;;;;;;9.88;100.00;96269.44;5043980;28;20212;-79
2020/12/12 10:38:35;;;;;;;2.40;1.40;;;;;;;10.13;100.00;96271.81;5038159;28;20382;-80
2020/12/12 10:41:10;;;;;;;2.50;1.63;;;;;;;10.29;100.00;96279.81;5049685;28;20313;-78
2020/12/12 10:43:37;;;;;;;1.90;1.57;;;;;;;10.27;100.00;96274.75;5049848;28;20260;-77
2020/12/12 10:46:04;;;;;;;2.53;1.50;;;;;;;10.60;100.00;96287.28;5046593;28;20200;-80
2020/12/12 10:48:31;;;;;;;2.87;1.50;;;;;;;10.55;100.00;96280.00;5051183;28;20239;-79
2020/12/12 10:50:58;;;;;;;2.10;1.30;;;;;;;10.32;100.00;96282.00;5057422;28;20224;-80
2020/12/12 10:53:25;;;;;;;2.80;1.80;;;;;;;10.34;100.00;96279.91;5056507;28;20199;-79
2020/12/12 10:55:52;;;;;;;2.90;1.83;;;;;;;10.15;100.00;96281.97;5056058;28;20289;-77
2020/12/12 10:58:19;;;;;;;2.10;1.23;;;;;;;10.43;100.00;96277.66;5053280;28;20208;-78
2020/12/12 11:00:48;;;;;;;1.87;1.47;;;;;;;10.40;100.00;96290.41;5057353;28;20720;-76
2020/12/12 11:03:15;;;;;;;2.97;1.60;;;;;;;10.51;100.00;96289.53;5058697;28;20209;-79
2020/12/12 11:05:42;;;;;;;2.07;1.23;;;;;;;10.15;100.00;96297.19;5055442;28;20204;-74
2020/12/12 11:08:09;;;;;;;4.43;1.37;;;;;;;10.20;100.00;96299.94;5048775;28;20308;-84
2020/12/12 11:10:37;;;;;;;4.30;1.90;;;;;;;10.24;100.00;96295.75;5064018;28;20225;-78
2020/12/12 11:13:03;;;;;;;2.80;1.83;;;;;;;10.01;100.00;96291.31;5058362;28;20298;-80
2020/12/12 11:15:30;;;;;;;3.87;2.00;;;;;;;10.27;100.00;96300.59;5047163;28;20682;-77
2020/12/12 11:17:59;;;;;;;1.93;1.40;;;;;;;10.40;100.00;96301.06;5055503;28;20207;-76
2020/12/12 11:20:26;;;;;;;1.87;1.40;;;;;;;10.51;100.00;96304.75;5050977;28;20257;-76
2020/12/12 11:22:55;;;;;;;3.43;1.50;;;;;;;10.19;100.00;96288.44;5051693;28;20205;-77
2020/12/12 11:25:22;;;;;;;3.30;1.40;;;;;;;10.33;100.00;96292.44;5050991;28;20667;-80
2020/12/12 11:27:49;;;;;;;1.43;1.10;;;;;;;10.41;100.00;96299.22;5058948;28;20247;-86
2020/12/12 11:30:18;;;;;;;1.40;1.10;;;;;;;10.27;100.00;96295.25;5055293;28;20233;-84
2020/12/12 11:32:45;;;;;;;2.40;1.60;;;;;;;10.78;100.00;96292.34;5045511;28;20233;-79
2020/12/12 11:35:15;;;;;;;2.57;1.43;;;;;;;10.44;100.00;96301.41;5061205;28;20638;-81